createdAt,value
2023-01-27T00:00:11.972Z,66.69
2023-01-27T00:02:42.178Z,67.44
2023-01-27T00:05:09.858Z,66.84
2023-01-27T00:07:36.449Z,66.48
2023-01-27T00:10:03.757Z,67.15
2023-01-27T00:12:49.143Z,66.13
2023-01-27T00:15:15.918Z,68.08
2023-01-27T00:17:42.580Z,68.58
2023-01-27T00:20:09.531Z,67.30
2023-01-27T00:22:54.961Z,66.67
2023-01-27T00:25:21.382Z,67.94
2023-01-27T00:27:47.850Z,67.87
2023-01-27T00:30:14.471Z,66.48
2023-01-27T00:32:59.908Z,65.96
2023-01-27T00:35:26.337Z,65.54
2023-01-27T00:37:54.271Z,67.11
2023-01-27T00:40:20.784Z,67.42
2023-01-27T00:42:47.144Z,66.50
2023-01-27T00:45:32.520Z,65.47
2023-01-27T00:47:58.933Z,65.08
2023-01-27T00:50:25.414Z,65.78
2023-01-27T00:52:52.785Z,65.56
2023-01-27T00:55:19.418Z,65.79
2023-01-27T00:57:45.909Z,66.77
2023-01-27T01:00:13.087Z,66.91
2023-01-27T01:02:39.755Z,67.73
2023-01-27T01:05:06.431Z,67.42
2023-01-27T01:07:32.944Z,66.36
2023-01-27T01:09:59.361Z,65.81
2023-01-27T01:12:26.792Z,66.53
2023-01-27T01:14:53.251Z,67.60
2023-01-27T01:17:19.650Z,67.33
2023-01-27T01:19:46.060Z,65.98
2023-01-27T01:22:12.478Z,67.55
2023-01-27T01:24:40.711Z,66.40
2023-01-27T01:27:07.327Z,65.93
2023-01-27T01:29:33.982Z,65.06
2023-01-27T01:32:00.450Z,66.41
2023-01-27T01:34:26.877Z,66.14
2023-01-27T01:36:53.267Z,65.29
2023-01-27T01:39:19.736Z,67.84
2023-01-27T01:41:46.978Z,66.44
2023-01-27T01:44:22.487Z,67.41
2023-01-27T01:46:48.990Z,66.06
2023-01-27T01:49:17.203Z,65.61
2023-01-27T01:51:46.398Z,66.83
2023-01-27T01:54:26.693Z,68.43
2023-01-27T01:57:01.470Z,68.43
2023-01-27T01:59:43.559Z,69.19
2023-01-27T02:02:15.746Z,68.42
2023-01-27T02:04:45.381Z,67.80
2023-01-27T02:07:18.064Z,67.19
2023-01-27T02:09:44.490Z,66.71
2023-01-27T02:12:11.368Z,67.78
2023-01-27T02:14:39.188Z,67.01
2023-01-27T02:17:05.721Z,66.68
2023-01-27T02:19:37.153Z,66.67
2023-01-27T02:22:04.847Z,66.39
2023-01-27T02:24:37.356Z,66.27
2023-01-27T02:27:04.160Z,67.38
2023-01-27T02:29:30.589Z,67.53
2023-01-27T02:31:57.289Z,67.98
2023-01-27T02:34:27.204Z,66.82
2023-01-27T02:36:57.416Z,67.55
2023-01-27T02:39:26.393Z,67.13
2023-01-27T02:41:54.878Z,67.32
2023-01-27T02:44:21.345Z,67.04
2023-01-27T02:46:48.024Z,67.60
2023-01-27T02:49:14.979Z,68.25
2023-01-27T02:51:41.563Z,67.90
2023-01-27T02:54:08.293Z,67.20
2023-01-27T02:56:35.034Z,66.68
2023-01-27T02:59:02.353Z,68.20
2023-01-27T03:01:36.098Z,68.12
2023-01-27T03:04:02.599Z,66.15
2023-01-27T03:06:29.051Z,66.04
2023-01-27T03:08:55.599Z,67.72
2023-01-27T03:11:40.915Z,67.93
2023-01-27T03:14:08.120Z,66.11
2023-01-27T03:16:54.101Z,65.97
2023-01-27T03:19:20.526Z,66.73
2023-01-27T03:21:51.062Z,67.66
2023-01-27T03:24:18.019Z,66.19
2023-01-27T03:26:44.887Z,66.37
2023-01-27T03:29:32.762Z,67.34
2023-01-27T03:32:00.560Z,67.32
2023-01-27T03:34:27.881Z,66.39
2023-01-27T03:37:19.939Z,66.28
2023-01-27T03:40:05.221Z,66.34
2023-01-27T03:42:50.482Z,66.34
2023-01-27T03:45:35.787Z,67.47
2023-01-27T03:48:02.227Z,69.19
2023-01-27T03:50:37.730Z,67.32
2023-01-27T03:53:05.273Z,67.05
2023-01-27T03:55:32.339Z,67.21
2023-01-27T03:58:17.983Z,67.49
2023-01-27T04:00:45.168Z,66.88
2023-01-27T04:03:30.435Z,67.00
2023-01-27T04:06:15.603Z,67.38
2023-01-27T04:08:42.437Z,66.49
2023-01-27T04:11:27.970Z,66.58
2023-01-27T04:13:55.019Z,66.69
2023-01-27T04:16:28.929Z,68.25
2023-01-27T04:18:55.902Z,67.37
2023-01-27T04:21:23.200Z,67.60
2023-01-27T04:23:49.668Z,68.21
2023-01-27T04:26:16.116Z,67.20
2023-01-27T04:28:44.562Z,67.01
2023-01-27T04:31:11.303Z,67.81
2023-01-27T04:33:37.762Z,67.83
2023-01-27T04:36:04.335Z,66.83
2023-01-27T04:38:30.830Z,65.90
2023-01-27T04:40:57.400Z,65.09
2023-01-27T04:43:23.892Z,64.91
2023-01-27T04:45:50.472Z,65.99
2023-01-27T04:48:16.912Z,67.85
2023-01-27T04:50:43.406Z,67.23
2023-01-27T04:53:09.873Z,68.31
2023-01-27T04:55:36.620Z,67.77
2023-01-27T04:58:03.766Z,67.58
2023-01-27T05:00:30.258Z,67.51
2023-01-27T05:02:56.652Z,67.57
2023-01-27T05:05:23.494Z,67.38
2023-01-27T05:07:49.882Z,66.34
2023-01-27T05:10:16.720Z,65.40
2023-01-27T05:12:43.144Z,65.80
2023-01-27T05:15:09.811Z,65.68
2023-01-27T05:17:36.261Z,66.53
2023-01-27T05:20:02.722Z,66.20
2023-01-27T05:22:29.146Z,66.49
2023-01-27T05:24:55.610Z,66.05
2023-01-27T05:27:22.184Z,68.81
2023-01-27T05:29:48.617Z,69.18
2023-01-27T05:32:15.025Z,67.72
2023-01-27T05:34:41.443Z,67.19
2023-01-27T05:37:07.892Z,66.21
2023-01-27T05:39:34.319Z,67.09
2023-01-27T05:42:00.850Z,67.55
2023-01-27T05:44:27.283Z,68.13
2023-01-27T05:46:53.748Z,68.62
2023-01-27T05:49:20.177Z,67.49
2023-01-27T05:51:46.614Z,67.56
2023-01-27T05:54:13.380Z,67.55
2023-01-27T05:56:40.743Z,66.49
2023-01-27T05:59:07.795Z,67.35
2023-01-27T06:01:34.918Z,66.94
2023-01-27T06:04:01.699Z,66.85
2023-01-27T06:06:29.430Z,65.87
2023-01-27T06:08:56.066Z,66.52
2023-01-27T06:11:24.140Z,67.61
2023-01-27T06:13:51.744Z,66.82
2023-01-27T06:16:19.118Z,65.54
2023-01-27T06:18:46.129Z,67.52
2023-01-27T06:21:14.030Z,66.84
2023-01-27T06:23:40.461Z,67.14
2023-01-27T06:26:09.440Z,67.66
2023-01-27T06:28:36.585Z,69.56
2023-01-27T06:31:07.712Z,68.84
2023-01-27T06:33:34.199Z,68.08
2023-01-27T06:36:02.558Z,68.50
2023-01-27T06:38:29.078Z,70.09
2023-01-27T06:40:55.493Z,72.55
2023-01-27T06:43:22.139Z,68.72
2023-01-27T06:45:49.515Z,68.19
2023-01-27T06:48:16.035Z,67.82
2023-01-27T06:50:42.646Z,68.80
2023-01-27T06:53:09.443Z,70.18
2023-01-27T06:55:41.287Z,69.77
2023-01-27T06:58:08.968Z,68.29
2023-01-27T07:00:36.652Z,67.60
2023-01-27T07:03:03.994Z,68.41
2023-01-27T07:05:30.861Z,67.15
2023-01-27T07:07:57.313Z,67.09
2023-01-27T07:10:23.705Z,68.48
2023-01-27T07:12:50.074Z,69.59
2023-01-27T07:15:16.513Z,68.89
2023-01-27T07:17:43.064Z,66.75
2023-01-27T07:20:12.346Z,67.57
2023-01-27T07:22:39.538Z,68.95
2023-01-27T07:25:06.711Z,68.02
2023-01-27T07:27:33.161Z,67.81
2023-01-27T07:29:59.572Z,67.91
2023-01-27T07:32:28.165Z,68.47
2023-01-27T07:34:55.342Z,68.85
2023-01-27T07:37:21.965Z,69.38
2023-01-27T07:39:48.704Z,68.61
2023-01-27T07:42:15.663Z,70.70
2023-01-27T07:44:42.093Z,68.67
2023-01-27T07:47:08.509Z,69.04
2023-01-27T07:49:34.969Z,69.55
2023-01-27T07:52:01.618Z,68.84
2023-01-27T07:54:28.268Z,69.71
2023-01-27T07:56:55.335Z,69.40
2023-01-27T07:59:21.981Z,70.37
2023-01-27T08:01:48.768Z,70.68
2023-01-27T08:04:15.553Z,70.71
2023-01-27T08:06:42.100Z,69.68
2023-01-27T08:09:08.574Z,69.73
2023-01-27T08:11:35.019Z,69.14
2023-01-27T08:14:01.612Z,69.07
2023-01-27T08:16:28.069Z,67.88
2023-01-27T08:18:54.873Z,69.72
2023-01-27T08:21:21.487Z,69.30
2023-01-27T08:23:47.968Z,69.36
2023-01-27T08:26:14.426Z,69.13
2023-01-27T08:28:41.343Z,68.93
2023-01-27T08:31:08.852Z,70.17
2023-01-27T08:33:35.722Z,70.75
2023-01-27T08:36:03.509Z,69.15
2023-01-27T08:38:30.042Z,70.87
2023-01-27T08:40:56.472Z,68.72
2023-01-27T08:43:22.907Z,68.42
2023-01-27T08:45:51.925Z,69.27
2023-01-27T08:48:18.332Z,70.47
2023-01-27T08:50:44.747Z,69.59
2023-01-27T08:53:11.165Z,69.36
2023-01-27T08:55:37.572Z,68.18
2023-01-27T08:58:03.964Z,67.68
2023-01-27T09:00:30.485Z,69.32
2023-01-27T09:02:56.877Z,68.79
2023-01-27T09:05:23.475Z,68.25
2023-01-27T09:07:49.986Z,68.15
2023-01-27T09:10:16.877Z,68.42
2023-01-27T09:12:44.051Z,68.95
2023-01-27T09:15:11.406Z,69.11
2023-01-27T09:17:37.882Z,70.00
2023-01-27T09:20:04.480Z,69.41
2023-01-27T09:22:31.328Z,70.05
2023-01-27T09:24:57.796Z,69.04
2023-01-27T09:27:37.267Z,70.84
2023-01-27T09:30:05.037Z,70.27
2023-01-27T09:32:31.429Z,71.88
2023-01-27T09:34:57.791Z,70.53
2023-01-27T09:37:26.884Z,68.52
2023-01-27T09:39:56.820Z,66.96
2023-01-27T09:42:50.333Z,67.63
2023-01-27T09:45:19.807Z,70.61
2023-01-27T09:48:12.587Z,69.33
2023-01-27T09:50:48.525Z,70.29
2023-01-27T09:53:33.477Z,70.72
2023-01-27T09:56:05.009Z,69.87
2023-01-27T09:59:00.933Z,70.21
2023-01-27T10:01:30.443Z,71.30
2023-01-27T10:04:15.208Z,70.65
2023-01-27T10:06:53.875Z,70.30
2023-01-27T10:09:23.345Z,70.79
2023-01-27T10:11:58.902Z,70.33
2023-01-27T10:14:25.315Z,69.72
2023-01-27T10:17:10.697Z,69.25
2023-01-27T10:19:54.535Z,71.07
2023-01-27T10:22:29.221Z,70.88
2023-01-27T10:25:19.048Z,70.83
2023-01-27T10:27:47.617Z,69.98
2023-01-27T10:30:16.756Z,70.52
2023-01-27T10:32:49.390Z,70.94
2023-01-27T10:35:22.028Z,69.18
2023-01-27T10:37:54.450Z,69.11
2023-01-27T10:40:27.511Z,70.78
2023-01-27T10:43:02.128Z,68.64
2023-01-27T10:45:31.733Z,69.82
2023-01-27T10:48:16.853Z,69.75
2023-01-27T10:50:45.849Z,69.84
2023-01-27T10:53:16.909Z,70.82
2023-01-27T10:56:01.819Z,70.41
2023-01-27T10:58:34.364Z,69.55
2023-01-27T11:01:20.202Z,68.96
2023-01-27T11:03:51.511Z,70.32
2023-01-27T11:06:22.134Z,69.73
2023-01-27T11:08:51.973Z,69.79
2023-01-27T11:11:39.646Z,69.56
2023-01-27T11:14:15.935Z,68.54
2023-01-27T11:16:44.606Z,69.09
2023-01-27T11:19:22.719Z,70.95
2023-01-27T11:22:06.226Z,70.22
2023-01-27T11:24:45.588Z,71.10
2023-01-27T11:27:24.119Z,70.43
2023-01-27T11:29:56.229Z,69.83
2023-01-27T11:32:31.860Z,70.10
2023-01-27T11:35:04.475Z,69.54
2023-01-27T11:37:33.962Z,72.09
2023-01-27T11:40:00.621Z,71.32
2023-01-27T11:42:30.248Z,69.31
2023-01-27T11:44:57.831Z,69.86
2023-01-27T11:47:26.849Z,70.41
2023-01-27T11:49:54.032Z,68.33
2023-01-27T11:52:22.305Z,68.99
2023-01-27T11:54:52.478Z,69.47
2023-01-27T11:57:20.770Z,70.79
2023-01-27T11:59:48.494Z,70.19
2023-01-27T12:02:25.431Z,70.55
2023-01-27T12:05:07.189Z,69.47
2023-01-27T12:07:54.404Z,70.16
2023-01-27T12:10:22.102Z,70.09
2023-01-27T12:12:48.532Z,69.96
2023-01-27T12:15:16.044Z,70.30
2023-01-27T12:17:46.923Z,70.03
2023-01-27T12:20:20.071Z,71.31
2023-01-27T12:22:48.434Z,69.87
2023-01-27T12:25:19.809Z,69.69
2023-01-27T12:27:51.460Z,72.09
2023-01-27T12:30:21.130Z,71.07
2023-01-27T12:32:47.975Z,71.03
2023-01-27T12:35:33.370Z,70.36
2023-01-27T12:38:03.252Z,71.18
2023-01-27T12:40:29.766Z,70.61
2023-01-27T12:43:02.321Z,69.59
2023-01-27T12:45:35.545Z,68.74
2023-01-27T12:48:02.034Z,70.51
2023-01-27T12:50:28.425Z,70.89
2023-01-27T12:52:54.828Z,70.30
2023-01-27T12:55:34.163Z,71.52
2023-01-27T12:58:00.888Z,70.06
2023-01-27T13:00:27.911Z,70.65
2023-01-27T13:03:01.122Z,70.45
2023-01-27T13:05:27.623Z,69.85
2023-01-27T13:07:54.221Z,69.46
2023-01-27T13:10:22.739Z,70.10
2023-01-27T13:12:54.174Z,68.67
2023-01-27T13:15:21.784Z,68.57
2023-01-27T13:17:55.547Z,68.36
2023-01-27T13:20:21.968Z,69.28
2023-01-27T13:22:54.347Z,68.78
2023-01-27T13:25:23.201Z,68.86
2023-01-27T13:27:51.344Z,69.38
2023-01-27T13:30:30.120Z,69.76
2023-01-27T13:32:59.531Z,70.11
2023-01-27T13:35:30.926Z,69.80
2023-01-27T13:38:15.423Z,70.48
2023-01-27T13:40:44.491Z,69.72
2023-01-27T13:43:20.333Z,69.85
2023-01-27T13:45:54.304Z,69.65
2023-01-27T13:48:24.440Z,68.59
2023-01-27T13:50:58.286Z,69.34
2023-01-27T13:53:25.188Z,68.68
2023-01-27T13:56:19.620Z,68.95
2023-01-27T13:58:46.066Z,68.89
2023-01-27T14:01:25.224Z,69.31
2023-01-27T14:04:05.459Z,69.59
2023-01-27T14:06:37.903Z,70.54
2023-01-27T14:09:17.813Z,69.46
2023-01-27T14:12:07.331Z,70.88
2023-01-27T14:14:56.099Z,71.12
2023-01-27T14:17:27.117Z,70.84
2023-01-27T14:19:56.318Z,70.41
2023-01-27T14:22:22.824Z,70.25
2023-01-27T14:24:49.454Z,71.09
2023-01-27T14:27:27.359Z,71.33
2023-01-27T14:29:58.192Z,70.29
2023-01-27T14:32:35.076Z,70.14
2023-01-27T14:35:09.844Z,69.92
2023-01-27T14:37:55.300Z,71.65
2023-01-27T14:40:29.143Z,70.01
2023-01-27T14:42:55.537Z,70.36
2023-01-27T14:45:24.720Z,69.89
2023-01-27T14:47:57.568Z,69.85
2023-01-27T14:50:26.965Z,68.27
2023-01-27T14:53:07.409Z,69.80
2023-01-27T14:55:39.921Z,70.84
2023-01-27T14:58:22.469Z,70.43
2023-01-27T15:00:52.588Z,70.48
2023-01-27T15:03:34.415Z,68.96
2023-01-27T15:06:11.901Z,70.47
2023-01-27T15:08:42.999Z,70.48
2023-01-27T15:11:28.303Z,71.25
2023-01-27T15:13:57.543Z,71.13
2023-01-27T15:16:24.016Z,70.48
2023-01-27T15:19:01.098Z,70.61
2023-01-27T15:21:30.611Z,70.64
2023-01-27T15:24:03.574Z,70.30
2023-01-27T15:26:31.374Z,70.35
2023-01-27T15:28:58.268Z,70.79
2023-01-27T15:31:26.389Z,70.70
2023-01-27T15:33:55.906Z,70.76
2023-01-27T15:36:29.855Z,70.17
2023-01-27T15:39:11.473Z,70.79
2023-01-27T15:41:50.362Z,70.43
2023-01-27T15:44:19.744Z,70.09
2023-01-27T15:46:47.865Z,69.72
2023-01-27T15:49:17.278Z,68.90
2023-01-27T15:51:43.825Z,69.06
2023-01-27T15:54:16.433Z,69.67
2023-01-27T15:56:46.676Z,69.64
2023-01-27T15:59:18.091Z,69.50
2023-01-27T16:01:44.594Z,70.48
2023-01-27T16:04:11.001Z,70.70
2023-01-27T16:06:44.849Z,70.21
2023-01-27T16:09:24.418Z,68.93
2023-01-27T16:11:58.601Z,69.39
2023-01-27T16:14:32.842Z,69.81
2023-01-27T16:17:15.808Z,70.25
2023-01-27T16:20:05.242Z,69.73
2023-01-27T16:22:32.970Z,70.41
2023-01-27T16:25:03.800Z,70.58
2023-01-27T16:27:33.259Z,70.33
2023-01-27T16:30:11.936Z,71.34
2023-01-27T16:32:41.857Z,70.16
2023-01-27T16:35:17.148Z,70.17
2023-01-27T16:37:59.672Z,70.42
2023-01-27T16:40:27.575Z,72.75
2023-01-27T16:42:53.965Z,72.86
2023-01-27T16:45:21.910Z,71.69
2023-01-27T16:47:52.815Z,71.41
2023-01-27T16:50:38.475Z,71.81
2023-01-27T16:53:07.144Z,71.70
2023-01-27T16:55:33.617Z,72.20
2023-01-27T16:58:01.660Z,71.63
2023-01-27T17:00:35.867Z,71.04
2023-01-27T17:03:11.143Z,69.99
2023-01-27T17:05:38.191Z,70.86
2023-01-27T17:08:24.317Z,70.03
2023-01-27T17:11:04.090Z,71.11
2023-01-27T17:13:44.961Z,70.93
2023-01-27T17:16:14.238Z,71.10
2023-01-27T17:18:52.308Z,70.89
2023-01-27T17:21:34.634Z,70.74
2023-01-27T17:24:04.228Z,72.41
2023-01-27T17:26:30.939Z,72.58
2023-01-27T17:28:57.732Z,71.11
2023-01-27T17:31:24.897Z,71.81
2023-01-27T17:33:56.487Z,71.26
2023-01-27T17:36:22.902Z,72.56
2023-01-27T17:38:50.692Z,71.80
2023-01-27T17:41:23.359Z,70.97
2023-01-27T17:43:50.016Z,69.75
2023-01-27T17:46:24.001Z,70.32
2023-01-27T17:48:55.414Z,70.49
2023-01-27T17:51:26.716Z,72.50
2023-01-27T17:53:54.505Z,73.34
2023-01-27T17:56:28.043Z,72.17
2023-01-27T17:58:57.749Z,71.98
2023-01-27T18:01:24.398Z,72.37
2023-01-27T18:03:53.831Z,70.85
2023-01-27T18:06:22.217Z,72.02
2023-01-27T18:08:50.599Z,71.41
2023-01-27T18:11:25.608Z,71.59
2023-01-27T18:13:53.486Z,71.13
2023-01-27T18:16:21.542Z,71.52
2023-01-27T18:18:49.408Z,70.91
2023-01-27T18:21:23.542Z,71.20
2023-01-27T18:23:52.690Z,72.20
2023-01-27T18:26:21.392Z,71.61
2023-01-27T18:29:05.778Z,70.61
2023-01-27T18:31:37.348Z,71.55
2023-01-27T18:34:06.768Z,70.68
2023-01-27T18:36:35.516Z,71.00
2023-01-27T18:39:22.524Z,70.89
2023-01-27T18:41:49.701Z,72.00
2023-01-27T18:44:18.782Z,71.57
2023-01-27T18:46:45.254Z,71.04
2023-01-27T18:49:12.121Z,71.43
2023-01-27T18:51:38.589Z,70.60
2023-01-27T18:54:05.890Z,70.02
2023-01-27T18:56:32.586Z,71.53
2023-01-27T18:58:59.237Z,72.07
2023-01-27T19:01:25.648Z,70.91
2023-01-27T19:03:52.473Z,70.74
2023-01-27T19:06:19.004Z,70.92
2023-01-27T19:08:45.477Z,70.44
2023-01-27T19:11:15.911Z,70.10
2023-01-27T19:13:42.813Z,70.44
2023-01-27T19:16:13.762Z,70.41
2023-01-27T19:18:41.007Z,71.18
2023-01-27T19:21:10.440Z,71.13
2023-01-27T19:23:37.000Z,70.13
2023-01-27T19:26:04.974Z,70.33
2023-01-27T19:28:31.419Z,71.29
2023-01-27T19:30:58.029Z,71.16
2023-01-27T19:33:25.465Z,70.51
2023-01-27T19:35:54.193Z,71.36
2023-01-27T19:38:21.443Z,71.46
2023-01-27T19:40:47.975Z,70.83
2023-01-27T19:43:14.921Z,70.92
2023-01-27T19:45:42.881Z,70.57
2023-01-27T19:48:16.837Z,72.06
2023-01-27T19:50:43.676Z,71.47
2023-01-27T19:53:11.543Z,71.84
2023-01-27T19:55:37.958Z,69.97
2023-01-27T19:58:04.577Z,70.52
2023-01-27T20:00:32.864Z,69.51
2023-01-27T20:02:59.704Z,69.61
2023-01-27T20:05:27.903Z,69.54
2023-01-27T20:07:55.171Z,70.84
2023-01-27T20:10:23.598Z,71.14
2023-01-27T20:12:56.394Z,69.91
2023-01-27T20:15:24.393Z,70.47
2023-01-27T20:17:51.995Z,70.15
2023-01-27T20:20:18.587Z,69.80
2023-01-27T20:22:45.319Z,69.66
2023-01-27T20:25:13.952Z,69.79
2023-01-27T20:27:40.943Z,69.46
2023-01-27T20:30:07.672Z,68.70
2023-01-27T20:32:34.105Z,69.40
2023-01-27T20:35:00.537Z,68.22
2023-01-27T20:37:26.998Z,68.97
2023-01-27T20:39:53.423Z,69.69
2023-01-27T20:42:19.934Z,67.79
2023-01-27T20:44:46.339Z,68.58
2023-01-27T20:47:13.392Z,67.23
2023-01-27T20:49:39.805Z,68.04
2023-01-27T20:52:06.775Z,68.63
2023-01-27T20:54:33.201Z,68.40
2023-01-27T20:56:59.763Z,68.58
2023-01-27T20:59:26.445Z,67.65
2023-01-27T21:01:52.901Z,67.26
2023-01-27T21:04:19.314Z,66.55
2023-01-27T21:06:45.735Z,66.86
2023-01-27T21:09:12.143Z,68.16
2023-01-27T21:11:38.589Z,69.29
2023-01-27T21:14:05.092Z,68.50
2023-01-27T21:16:31.679Z,69.27
2023-01-27T21:18:58.156Z,68.57
2023-01-27T21:21:27.172Z,68.00
2023-01-27T21:23:57.583Z,67.63
2023-01-27T21:26:24.364Z,67.60
2023-01-27T21:28:50.857Z,67.83
2023-01-27T21:31:18.772Z,68.36
2023-01-27T21:33:49.968Z,70.31
2023-01-27T21:36:17.336Z,68.64
2023-01-27T21:38:43.743Z,68.48
2023-01-27T21:41:13.316Z,69.43
2023-01-27T21:43:58.558Z,67.47
2023-01-27T21:46:25.127Z,68.39
2023-01-27T21:48:51.621Z,68.57
2023-01-27T21:51:18.081Z,69.13
2023-01-27T21:53:44.657Z,68.60
2023-01-27T21:56:11.185Z,68.05
2023-01-27T21:58:37.699Z,69.95
2023-01-27T22:01:05.329Z,69.25
2023-01-27T22:03:31.814Z,70.05
2023-01-27T22:05:58.215Z,69.14
2023-01-27T22:08:24.659Z,68.43
2023-01-27T22:10:51.078Z,70.52
2023-01-27T22:13:17.506Z,69.65
2023-01-27T22:15:48.447Z,68.58
2023-01-27T22:18:14.872Z,70.75
2023-01-27T22:20:41.353Z,69.06
2023-01-27T22:23:07.874Z,69.28
2023-01-27T22:25:34.362Z,67.98
2023-01-27T22:28:00.810Z,70.41
2023-01-27T22:30:27.298Z,69.78
2023-01-27T22:32:53.789Z,69.04
2023-01-27T22:35:20.204Z,68.09
2023-01-27T22:37:48.797Z,69.54
2023-01-27T22:40:16.378Z,69.96
2023-01-27T22:42:42.815Z,70.26
2023-01-27T22:45:09.944Z,70.12
2023-01-27T22:47:36.396Z,68.33
2023-01-27T22:50:02.869Z,68.62
2023-01-27T22:52:29.290Z,69.18
2023-01-27T22:54:55.667Z,71.04
2023-01-27T22:57:22.056Z,69.94
2023-01-27T22:59:48.468Z,69.69
2023-01-27T23:02:15.050Z,69.80
2023-01-27T23:04:41.495Z,68.89
2023-01-27T23:07:07.884Z,68.49
2023-01-27T23:09:34.308Z,68.96
2023-01-27T23:12:00.804Z,70.17
2023-01-27T23:14:27.228Z,71.12
2023-01-27T23:16:53.797Z,72.05
2023-01-27T23:19:21.863Z,71.16
2023-01-27T23:21:48.393Z,70.31
2023-01-27T23:24:15.399Z,70.71
2023-01-27T23:26:41.915Z,71.12
2023-01-27T23:29:22.951Z,71.08
2023-01-27T23:31:51.502Z,71.40
2023-01-27T23:34:18.008Z,71.71
2023-01-27T23:36:44.443Z,71.55
2023-01-27T23:39:14.407Z,71.44
2023-01-27T23:41:40.925Z,70.89
2023-01-27T23:44:10.108Z,70.75
2023-01-27T23:46:36.549Z,70.96
2023-01-27T23:49:02.981Z,70.77
2023-01-27T23:51:29.491Z,71.11
2023-01-27T23:53:55.898Z,70.55
2023-01-27T23:56:22.334Z,70.59
2023-01-27T23:58:48.907Z,69.88
